Domov               UVHVVR             MKGP            O straneh              
ZDRAVSTVENO VARSTVO RASTLIN
  MREŽA AGROMET. POSTAJ
 ► PROGNOSTIČNA OBVESTILA
AGROMETEOROLOŠKI PODATKI -
ARSO
OBVLADOVANJE TVEGANJ ZARADI
NEUGODNIH VREMENSKIH RAZMER
  ► NARAVNE NESREČE
  ► SUŠA/MOČA
  ► NAMAKANJE
  ► ŽLED (gozdarstvo)
KARTOGRAFSKI PRIKAZI
SPLETNE POVEZAVE
PROJEKTI IN PUBLIKACIJE

AGROMETEOROLOŠKA MREŽA: VREMENSKE POSTAJE IN FENOLOŠKA OPAZOVANJA

Pregled podatkov za lokacijo Šentjernej APS, meteorološka postaja 49205

Pregled senzorjev na lokaciji

ID Ime Zadnja
vrednost
Datum
zadnje
spremembe
Tip
senzorja
3731 Sončno sevanje (W/m2) 243,56 W/m2 19.2.2018 14:30 Pyranometer SP-Lite
3730 Omočenost lista (U) 0 U 19.2.2018 14:30 A730WET
3735 Padavine (mm) 0 mm 19.2.2018 14:30 Rain-O-Matic
3729 Relativna vlaga 2 m (% RH) 73,66 % RH 19.2.2018 14:30 50YA
3728 Temperatura 2 m (°C) 1,77 °C 19.2.2018 14:30 50YA
3734 Smer vetra (°) 156,85 ° 19.2.2018 14:30 566.2S-130
3733 Hitrost vetra (km/h) 10,86 km/h 19.2.2018 14:30 566.2S-176 (200km/h)

Pregled podatkov zadnjih 24 ur

Zap.
št.
Datum in čas Šentjernej APS
Sončno
sevanje
Omočenost
lista
Padavine Relativna
vlaga
2
m
Temperatura
2
m
Smer
vetra
Hitrost
vetra
1 19.2.2018 15:00
2 19.2.2018 14:30 243,6 0 0 73,7 1,8 156,9 10,9
3 19.2.2018 14:00 206,6 0 0 76,2 1,4 121,8 12,6
4 19.2.2018 13:30 199,4 0 0 76,9 1,3 115,9 12,2
5 19.2.2018 13:00 209,8 0 0 76,6 1,4 115,3 12,1
6 19.2.2018 12:30 212,7 0 0 78,6 1,2 119 10,1
7 19.2.2018 12:00 255,5 0 0 81,2 0,9 121,2 12
8 19.2.2018 11:30 192,8 0 0 82,4 0,5 136,7 16
9 19.2.2018 11:00 294 0 0 84,1 0,5 128,4 15,1
10 19.2.2018 10:30 239,2 0 0 83,4 0,4 127,2 14,4
11 19.2.2018 10:00 137,8 0 0 86 0 111,3 13,1
12 19.2.2018 09:30 83,7 0 0 85 -0,1 125,3 13,6
13 19.2.2018 09:00 54,6 0 0 84,2 -0,1 126,7 14,5
14 19.2.2018 08:30 36,6 0 0 85,4 -0,2 138,6 15,3
15 19.2.2018 08:00 28,3 0 0 88,4 -0,5 143,4 13,7
16 19.2.2018 07:30 9,2 0 0 92 -0,7 151,2 14,3
17 19.2.2018 07:00 1,3 0 0 90,1 -0,5 148,8 10,9
18 19.2.2018 06:30 0,4 0 0 84,2 -0,1 147,8 11,7
19 19.2.2018 06:00 0,3 0 0 83,4 0 155,1 11,3
20 19.2.2018 05:30 0,3 0 0 82,4 0,1 160,2 13,2
21 19.2.2018 05:00 0,3 0 0 81,9 0,2 162 13,7
22 19.2.2018 04:30 0,3 0 0 81,6 0,2 150,7 12,4
23 19.2.2018 04:00 0,3 0 0 79,3 0,5 186,5 12,1
24 19.2.2018 03:30 0,3 0 0 79,4 0,5 156,9 12,1
25 19.2.2018 03:00 0,3 0 0 79,5 0,6 168,8 11,2
26 19.2.2018 02:30 0,3 0 0 80,5 0,7 162,2 14,1
27 19.2.2018 02:00 0,3 0 0 83,7 0,7 173,6 12,2
28 19.2.2018 01:30 0,3 0 0 84,6 0,8 144,1 14,3
29 19.2.2018 01:00 0,3 0 0,2 85,9 0,8 172,4 12,7
30 19.2.2018 00:30 0,3 0 0 85,8 1 149,7 11,7
31 19.2.2018 00:00 0,3 0 0 87,4 1,1 153,5 10,2
32 18.2.2018 23:30 0,3 0 0 89,2 1,1 154 9,5
33 18.2.2018 23:00 0,3 0 0 91,3 1 162,2 9,7
34 18.2.2018 22:30 0,3 0 0 94,6 0,9 160,9 10,6
35 18.2.2018 22:00 0,4 2 0 98,2 0,7 145 11,9
36 18.2.2018 21:30 0,3 7 0,2 99,8 0,7 138,7 12,6
37 18.2.2018 21:00 0,3 10 0,2 100 0,8 143,6 9,1
38 18.2.2018 20:30 0,3 9 0,2 99,8 0,9 131,4 8,9
39 18.2.2018 20:00 0,3 9 0,2 99,8 1 138,8 11,3
40 18.2.2018 19:30 0,3 9 0,4 99,4 1 137,7 9,1
41 18.2.2018 19:00 0,3 10 0 97,4 1,2 125,9 9,4
42 18.2.2018 18:30 0,4 10 0,2 95,2 1,4 141,9 10,6
43 18.2.2018 18:00 0,6 10 0,2 97,4 1,5 139,2 8,7
44 18.2.2018 17:30 3,4 10 0 97,3 1,4 112,2 5,4
45 18.2.2018 17:00 19,2 2 0 90 2,1 82,5 6,8
46 18.2.2018 16:30 40,8 0 0 86,5 2,5 129,8 7,7
47 18.2.2018 16:00 85 0 0 87,7 2,4 152,6 7
48 18.2.2018 15:30 96,4 3 0 89,5 2,3 154,5 9
© 2011 Ministrstvo za kmetijstvo, gozdarstvo in prehrano. Vse pravice pridržane.